createdAt,value
2019-02-17T00:00:29.978Z,22.93
2019-02-17T00:02:57.395Z,21.70
2019-02-17T00:05:25.673Z,21.47
2019-02-17T00:13:55.329Z,20.30
2019-02-17T00:16:24.337Z,20.23
2019-02-17T00:18:53.213Z,19.97
2019-02-17T00:21:21.136Z,20.23
2019-02-17T00:23:48.503Z,20.93
2019-02-17T00:26:16.860Z,19.03
2019-02-17T00:28:45.227Z,19.17
2019-02-17T00:31:13.155Z,19.03
2019-02-17T00:33:43.070Z,18.07
2019-02-17T00:36:10.526Z,18.17
2019-02-17T00:38:38.343Z,17.53
2019-02-17T00:41:05.706Z,16.47
2019-02-17T00:43:34.377Z,17.40
2019-02-17T00:46:01.731Z,17.67
2019-02-17T00:48:29.260Z,17.63
2019-02-17T00:50:56.736Z,16.53
2019-02-17T00:53:24.238Z,17.30
2019-02-17T00:55:51.732Z,17.57
2019-02-17T00:58:19.293Z,17.00
2019-02-17T01:00:47.819Z,17.57
2019-02-17T01:03:15.773Z,17.93
2019-02-17T01:05:44.833Z,16.47
2019-02-17T01:08:12.310Z,15.60
2019-02-17T01:10:41.329Z,15.53
2019-02-17T01:13:10.432Z,16.07
2019-02-17T01:15:38.192Z,16.37
2019-02-17T01:18:05.584Z,17.47
2019-02-17T01:20:33.011Z,16.43
2019-02-17T01:23:00.419Z,17.93
2019-02-17T01:25:27.884Z,17.13
2019-02-17T01:27:55.865Z,16.03
2019-02-17T01:30:23.348Z,16.87
2019-02-17T01:32:50.768Z,16.93
2019-02-17T01:35:18.266Z,16.97
2019-02-17T01:37:45.784Z,17.27
2019-02-17T01:40:13.250Z,15.97
2019-02-17T01:42:40.895Z,17.53
2019-02-17T01:45:08.718Z,14.80
2019-02-17T01:47:36.126Z,16.63
2019-02-17T01:50:04.368Z,16.30
2019-02-17T01:52:31.815Z,17.20
2019-02-17T01:54:59.455Z,16.83
2019-02-17T01:57:28.517Z,17.77
2019-02-17T01:59:58.451Z,17.33
2019-02-17T02:02:25.961Z,17.33
2019-02-17T02:04:53.333Z,17.67
2019-02-17T02:07:20.947Z,19.07
2019-02-17T02:09:48.399Z,18.13
2019-02-17T02:12:15.738Z,18.33
2019-02-17T02:14:43.240Z,17.97
2019-02-17T02:17:10.708Z,17.30
2019-02-17T02:19:38.123Z,17.70
2019-02-17T02:22:05.468Z,17.27
2019-02-17T02:24:32.927Z,17.37
2019-02-17T02:27:00.673Z,18.13
2019-02-17T02:29:28.209Z,17.50
2019-02-17T02:31:57.108Z,17.43
2019-02-17T02:34:24.489Z,15.63
2019-02-17T02:36:51.913Z,17.83
2019-02-17T02:39:19.342Z,18.53
2019-02-17T02:41:46.784Z,18.93
2019-02-17T02:44:14.184Z,17.30
2019-02-17T02:46:41.524Z,17.70
2019-02-17T02:49:09.042Z,18.83
2019-02-17T02:51:36.492Z,18.93
2019-02-17T02:54:04.242Z,19.03
2019-02-17T02:56:31.625Z,18.27
2019-02-17T02:58:59.152Z,18.10
2019-02-17T03:01:26.626Z,18.83
2019-02-17T03:03:54.067Z,17.67
2019-02-17T03:06:28.824Z,20.23
2019-02-17T03:08:56.349Z,18.17
2019-02-17T03:11:23.858Z,18.33
2019-02-17T03:13:51.381Z,17.33
2019-02-17T03:16:18.776Z,17.27
2019-02-17T03:18:46.314Z,17.30
2019-02-17T03:21:13.648Z,17.80
2019-02-17T03:23:41.215Z,18.53
2019-02-17T03:26:08.563Z,18.50
2019-02-17T03:28:36.070Z,18.10
2019-02-17T03:31:03.596Z,19.00
2019-02-17T03:33:31.140Z,18.30
2019-02-17T03:35:58.612Z,18.53
2019-02-17T03:38:26.102Z,17.27
2019-02-17T03:40:53.636Z,17.00
2019-02-17T03:43:21.074Z,18.77
2019-02-17T03:45:50.144Z,19.83
2019-02-17T03:48:17.564Z,19.77
2019-02-17T03:50:44.984Z,17.40
2019-02-17T03:53:12.401Z,18.27
2019-02-17T03:55:39.798Z,18.90
2019-02-17T03:58:07.458Z,18.83
2019-02-17T04:00:35.353Z,18.47
2019-02-17T04:03:02.778Z,19.37
2019-02-17T04:05:30.211Z,17.17
2019-02-17T04:07:57.616Z,17.77
2019-02-17T04:10:25.113Z,18.27
2019-02-17T04:12:52.520Z,18.10
2019-02-17T04:15:20.030Z,19.77
2019-02-17T04:17:47.446Z,20.97
2019-02-17T04:20:14.870Z,19.07
2019-02-17T04:22:42.473Z,18.53
2019-02-17T04:25:10.120Z,18.90
2019-02-17T04:27:37.554Z,19.83
2019-02-17T04:30:05.496Z,20.10
2019-02-17T04:32:33.040Z,20.17
2019-02-17T04:35:00.581Z,19.93
2019-02-17T04:37:27.899Z,18.17
2019-02-17T04:39:55.469Z,19.77
2019-02-17T04:42:22.861Z,20.90
2019-02-17T04:44:50.287Z,18.83
2019-02-17T04:47:17.701Z,18.30
2019-02-17T04:49:45.226Z,20.30
2019-02-17T04:52:13.061Z,18.67
2019-02-17T04:54:40.566Z,19.10
2019-02-17T04:57:07.971Z,19.63
2019-02-17T04:59:35.467Z,18.33
2019-02-17T05:02:02.884Z,19.93
2019-02-17T05:04:30.457Z,20.17
2019-02-17T05:06:57.812Z,19.27
2019-02-17T05:09:25.138Z,19.00
2019-02-17T05:11:52.901Z,19.47
2019-02-17T05:14:20.333Z,19.63
2019-02-17T05:16:47.752Z,20.03
2019-02-17T05:19:15.171Z,19.40
2019-02-17T05:21:42.570Z,21.40
2019-02-17T05:24:10.156Z,21.13
2019-02-17T05:26:37.580Z,23.83
2019-02-17T05:29:05.021Z,25.70
2019-02-17T05:31:32.419Z,25.57
2019-02-17T05:33:59.911Z,24.23
2019-02-17T05:36:27.309Z,23.80
2019-02-17T05:38:54.754Z,22.23
2019-02-17T05:41:22.235Z,21.43
2019-02-17T05:43:49.669Z,25.03
2019-02-17T05:46:17.509Z,30.50
2019-02-17T05:48:44.917Z,44.27
2019-02-17T05:51:12.360Z,48.47
2019-02-17T05:53:39.926Z,42.87
2019-02-17T05:56:07.291Z,37.97
2019-02-17T05:58:34.617Z,32.83
2019-02-17T06:01:04.121Z,35.50
2019-02-17T06:03:31.060Z,36.07
2019-02-17T06:05:58.903Z,39.70
2019-02-17T06:08:26.247Z,31.83
2019-02-17T06:10:56.554Z,28.20
2019-02-17T06:13:24.001Z,25.30
2019-02-17T06:15:51.453Z,25.87
2019-02-17T06:18:19.154Z,25.60
2019-02-17T06:20:46.555Z,30.27
2019-02-17T06:23:13.903Z,30.50
2019-02-17T06:25:41.432Z,29.10
2019-02-17T06:28:08.943Z,32.70
2019-02-17T06:30:36.404Z,38.17
2019-02-17T06:33:03.803Z,33.33
2019-02-17T06:35:31.344Z,32.83
2019-02-17T06:38:00.865Z,30.57
2019-02-17T06:40:29.621Z,29.13
2019-02-17T06:42:57.072Z,26.93
2019-02-17T06:45:24.586Z,29.43
2019-02-17T06:47:52.696Z,31.03
2019-02-17T06:50:20.563Z,34.40
2019-02-17T06:52:49.335Z,39.43
2019-02-17T06:55:21.395Z,38.97
2019-02-17T06:57:50.575Z,38.27
2019-02-17T07:00:25.600Z,37.93
2019-02-17T07:02:57.736Z,38.53
2019-02-17T07:05:26.933Z,39.93
2019-02-17T07:07:54.796Z,43.23
2019-02-17T07:10:22.647Z,40.73
2019-02-17T07:12:50.341Z,42.43
2019-02-17T07:15:18.281Z,40.70
2019-02-17T07:17:47.065Z,39.23
2019-02-17T07:20:14.980Z,44.80
2019-02-17T07:22:42.652Z,43.07
2019-02-17T07:25:10.125Z,43.77
2019-02-17T07:27:37.607Z,40.73
2019-02-17T07:30:05.530Z,46.87
2019-02-17T07:32:33.096Z,48.00
2019-02-17T07:35:00.557Z,49.00
2019-02-17T07:37:33.275Z,43.60
2019-02-17T07:39:57.058Z,40.47
2019-02-17T07:42:24.624Z,37.80
2019-02-17T07:44:52.208Z,36.27
2019-02-17T07:47:19.702Z,34.80
2019-02-17T07:49:47.272Z,31.90
2019-02-17T07:52:14.686Z,30.47
2019-02-17T07:54:42.032Z,30.13
2019-02-17T07:57:09.573Z,28.43
2019-02-17T07:59:37.052Z,27.73
2019-02-17T08:02:04.692Z,27.73
2019-02-17T08:04:32.034Z,29.37
2019-02-17T08:06:59.449Z,27.73
2019-02-17T08:09:27.026Z,28.40
2019-02-17T08:11:54.434Z,28.60
2019-02-17T08:14:23.668Z,29.00
2019-02-17T08:16:51.030Z,30.20
2019-02-17T08:19:18.433Z,30.10
2019-02-17T08:21:45.785Z,29.47
2019-02-17T08:24:13.243Z,29.20
2019-02-17T08:26:40.683Z,28.10
2019-02-17T08:29:08.142Z,29.67
2019-02-17T08:31:35.543Z,30.30
2019-02-17T08:34:03.092Z,30.27
2019-02-17T08:36:30.565Z,31.30
2019-02-17T08:38:57.974Z,30.30
2019-02-17T08:41:25.461Z,32.00
2019-02-17T08:43:52.943Z,30.77
2019-02-17T08:46:20.273Z,32.27
2019-02-17T08:48:47.980Z,32.30
2019-02-17T08:51:15.688Z,31.37
2019-02-17T08:53:43.064Z,30.97
2019-02-17T08:56:10.581Z,31.67
2019-02-17T08:58:38.017Z,31.53
2019-02-17T09:01:05.432Z,30.97
2019-02-17T09:03:32.929Z,31.53
2019-02-17T09:06:00.446Z,32.53
2019-02-17T09:08:27.852Z,33.43
2019-02-17T09:10:55.299Z,33.30
2019-02-17T09:13:22.736Z,34.90
2019-02-17T09:15:50.172Z,35.33
2019-02-17T09:18:19.422Z,33.50
2019-02-17T09:20:49.123Z,33.10
2019-02-17T09:23:16.638Z,33.00
2019-02-17T09:25:44.076Z,33.87
2019-02-17T09:28:11.491Z,32.93
2019-02-17T09:30:38.956Z,29.53
2019-02-17T09:33:06.397Z,29.37
2019-02-17T09:35:34.380Z,27.60
2019-02-17T09:38:01.829Z,23.30
2019-02-17T09:40:29.266Z,23.77
2019-02-17T09:42:56.680Z,22.63
2019-02-17T09:45:26.036Z,22.33
2019-02-17T09:47:54.846Z,22.13
2019-02-17T09:50:22.255Z,22.10
2019-02-17T09:52:50.179Z,21.53
2019-02-17T09:55:19.631Z,22.57
2019-02-17T09:57:46.934Z,21.57
2019-02-17T10:00:14.874Z,18.73
2019-02-17T10:02:42.425Z,19.63
2019-02-17T10:05:10.351Z,18.70
2019-02-17T10:07:37.816Z,19.20
2019-02-17T10:10:08.761Z,19.00
2019-02-17T10:12:36.254Z,20.27
2019-02-17T10:15:03.968Z,17.77
2019-02-17T10:17:31.500Z,16.37
2019-02-17T10:19:59.000Z,15.27
2019-02-17T10:22:26.496Z,15.57
2019-02-17T10:24:53.835Z,14.97
2019-02-17T10:27:21.185Z,13.37
2019-02-17T10:29:48.589Z,13.57
2019-02-17T10:32:16.069Z,13.93
2019-02-17T10:34:43.505Z,13.60
2019-02-17T10:37:10.938Z,16.37
2019-02-17T10:39:38.545Z,18.13
2019-02-17T10:42:05.874Z,18.87
2019-02-17T10:44:33.296Z,18.73
2019-02-17T10:47:00.708Z,18.90
2019-02-17T10:49:28.267Z,20.10
2019-02-17T10:51:55.649Z,18.33
2019-02-17T10:54:23.284Z,20.33
2019-02-17T10:56:51.108Z,20.47
2019-02-17T10:59:18.472Z,20.10
2019-02-17T11:01:45.905Z,18.60
2019-02-17T11:04:13.210Z,20.33
2019-02-17T11:06:40.944Z,19.97
2019-02-17T11:09:10.039Z,20.27
2019-02-17T11:11:38.518Z,21.93
2019-02-17T11:14:05.925Z,19.50
2019-02-17T11:16:33.261Z,19.40
2019-02-17T11:19:00.778Z,18.00
2019-02-17T11:21:28.168Z,16.80
2019-02-17T11:23:55.634Z,17.40
2019-02-17T11:26:23.082Z,18.03
2019-02-17T11:28:52.815Z,18.23
2019-02-17T11:31:20.315Z,18.77
2019-02-17T11:33:47.972Z,19.47
2019-02-17T11:36:15.422Z,17.53
2019-02-17T11:38:43.171Z,18.70
2019-02-17T11:41:12.565Z,18.20
2019-02-17T11:43:39.641Z,18.53
2019-02-17T11:46:07.144Z,19.17
2019-02-17T11:48:34.543Z,19.93
2019-02-17T11:51:01.971Z,20.43
2019-02-17T11:53:29.424Z,19.13
2019-02-17T11:55:56.966Z,18.67
2019-02-17T11:58:24.637Z,18.70
2019-02-17T12:00:52.104Z,21.13
2019-02-17T12:03:20.094Z,20.67
2019-02-17T12:05:47.568Z,18.60
2019-02-17T12:08:16.301Z,21.07
2019-02-17T12:10:43.963Z,21.53
2019-02-17T12:13:11.435Z,20.47
2019-02-17T12:15:39.006Z,21.53
2019-02-17T12:18:06.438Z,22.80
2019-02-17T12:20:44.673Z,22.07
2019-02-17T12:23:26.884Z,20.10
2019-02-17T12:25:55.937Z,17.20
2019-02-17T12:28:30.661Z,18.40
2019-02-17T12:30:58.203Z,18.37
2019-02-17T12:33:25.607Z,17.10
2019-02-17T12:35:53.104Z,17.23
2019-02-17T12:38:20.649Z,18.00
2019-02-17T12:40:48.514Z,18.80
2019-02-17T12:43:15.998Z,19.53
2019-02-17T12:45:43.557Z,18.90
2019-02-17T12:48:11.000Z,18.77
2019-02-17T12:50:39.680Z,19.60
2019-02-17T12:53:07.114Z,20.43
2019-02-17T12:55:34.530Z,20.83
2019-02-17T12:58:03.522Z,20.30
2019-02-17T13:00:30.952Z,19.83
2019-02-17T13:02:58.388Z,20.67
2019-02-17T13:05:25.868Z,21.10
2019-02-17T13:07:53.428Z,21.70
2019-02-17T13:10:20.913Z,21.43
2019-02-17T13:12:48.857Z,21.90
2019-02-17T13:15:16.518Z,22.87
2019-02-17T13:17:44.087Z,21.40
2019-02-17T13:20:12.144Z,20.10
2019-02-17T13:22:39.744Z,21.13
2019-02-17T13:25:11.388Z,21.57
2019-02-17T13:27:38.815Z,21.33
2019-02-17T13:30:07.855Z,20.53
2019-02-17T13:32:36.904Z,21.20
2019-02-17T13:35:04.766Z,21.70
2019-02-17T13:37:33.812Z,19.50
2019-02-17T13:40:03.796Z,20.40
2019-02-17T13:42:31.726Z,19.50
2019-02-17T13:45:03.617Z,21.33
2019-02-17T13:47:35.366Z,19.33
2019-02-17T13:50:04.726Z,19.33
2019-02-17T13:52:32.294Z,20.87
2019-02-17T13:54:59.744Z,23.57
2019-02-17T13:57:27.118Z,22.33
2019-02-17T13:59:54.828Z,20.03
2019-02-17T14:02:22.342Z,20.67
2019-02-17T14:04:49.842Z,21.37
2019-02-17T14:07:17.218Z,19.47
2019-02-17T14:09:44.682Z,19.20
2019-02-17T14:12:12.265Z,22.63
2019-02-17T14:14:39.817Z,26.00
2019-02-17T14:17:07.434Z,21.53
2019-02-17T14:19:34.886Z,20.80
2019-02-17T14:22:02.248Z,22.47
2019-02-17T14:24:29.710Z,20.03
2019-02-17T14:26:57.258Z,20.20
2019-02-17T14:29:24.662Z,20.53
2019-02-17T14:31:52.231Z,20.93
2019-02-17T14:34:20.713Z,20.50
2019-02-17T14:36:49.799Z,20.60
2019-02-17T14:39:17.305Z,21.67
2019-02-17T14:41:44.868Z,20.97
2019-02-17T14:44:12.347Z,20.33
2019-02-17T14:46:39.970Z,21.67
2019-02-17T14:49:07.443Z,21.03
2019-02-17T14:51:34.825Z,21.83
2019-02-17T14:54:02.399Z,24.80
2019-02-17T14:56:29.930Z,22.73
2019-02-17T14:58:57.604Z,21.90
2019-02-17T15:01:25.586Z,22.57
2019-02-17T15:03:53.109Z,21.73
2019-02-17T15:06:20.513Z,20.77
2019-02-17T15:08:48.066Z,21.90
2019-02-17T15:11:15.520Z,24.20
2019-02-17T15:13:46.997Z,24.77
2019-02-17T15:16:14.029Z,28.33
2019-02-17T15:18:41.431Z,26.20
2019-02-17T15:21:08.894Z,26.80
2019-02-17T15:23:36.250Z,27.43
2019-02-17T15:26:03.759Z,28.67
2019-02-17T15:28:31.269Z,27.47
2019-02-17T15:30:58.914Z,26.33
2019-02-17T15:33:26.701Z,38.40
2019-02-17T15:35:54.252Z,43.00
2019-02-17T15:38:21.640Z,41.67
2019-02-17T15:40:58.829Z,41.27
2019-02-17T15:43:26.263Z,42.17
2019-02-17T15:45:56.295Z,39.33
2019-02-17T15:48:25.569Z,37.23
2019-02-17T15:50:55.680Z,35.87
2019-02-17T15:53:23.125Z,35.80
2019-02-17T15:55:50.541Z,37.47
2019-02-17T15:58:19.287Z,39.83
2019-02-17T16:00:46.704Z,46.30
2019-02-17T16:03:15.281Z,45.83
2019-02-17T16:05:44.260Z,51.97
2019-02-17T16:08:12.460Z,48.33
2019-02-17T16:10:39.899Z,52.47
2019-02-17T16:13:07.373Z,56.87
2019-02-17T16:15:34.831Z,64.97
2019-02-17T16:18:02.408Z,67.40
2019-02-17T16:20:29.761Z,66.10
2019-02-17T16:22:58.928Z,73.90
2019-02-17T16:25:28.425Z,64.83
2019-02-17T16:27:59.751Z,57.10
2019-02-17T16:30:29.092Z,52.50
2019-02-17T16:32:56.587Z,73.77
2019-02-17T16:35:24.115Z,163.83
2019-02-17T16:37:51.588Z,183.97
2019-02-17T16:40:19.207Z,166.40
2019-02-17T16:42:46.779Z,164.50
2019-02-17T16:45:14.465Z,177.00
2019-02-17T16:47:42.046Z,137.17
2019-02-17T16:50:13.043Z,123.30
2019-02-17T16:52:41.087Z,104.33
2019-02-17T16:55:17.322Z,100.50
2019-02-17T16:57:44.541Z,128.70
2019-02-17T17:02:54.384Z,112.27
2019-02-17T17:05:23.218Z,92.13
2019-02-17T17:07:50.765Z,86.30
2019-02-17T17:10:18.244Z,75.97
2019-02-17T17:12:45.580Z,84.83
2019-02-17T17:15:13.033Z,95.27
2019-02-17T17:17:40.392Z,100.63
2019-02-17T17:20:11.479Z,81.47
2019-02-17T17:22:38.859Z,80.33
2019-02-17T17:25:07.541Z,92.63
2019-02-17T17:27:35.345Z,87.17
2019-02-17T17:30:03.013Z,93.77
2019-02-17T17:32:30.357Z,103.57
2019-02-17T17:34:59.228Z,91.67
2019-02-17T17:37:26.953Z,97.10
2019-02-17T17:39:54.886Z,112.73
2019-02-17T17:42:22.354Z,123.37
2019-02-17T17:44:49.725Z,137.33
2019-02-17T17:47:19.516Z,131.17
2019-02-17T17:49:47.029Z,150.87
2019-02-17T17:52:14.446Z,124.20
2019-02-17T17:54:41.905Z,119.67
2019-02-17T17:57:09.596Z,109.07
2019-02-17T17:59:37.010Z,108.97
2019-02-17T18:02:04.566Z,119.77
2019-02-17T18:04:31.994Z,134.27
2019-02-17T18:06:59.488Z,136.17
2019-02-17T18:09:28.560Z,141.97
2019-02-17T18:11:56.018Z,141.17
2019-02-17T18:14:23.490Z,142.40
2019-02-17T18:16:50.840Z,138.60
2019-02-17T18:19:18.259Z,133.67
2019-02-17T18:21:45.654Z,139.97
2019-02-17T18:24:13.141Z,142.20
2019-02-17T18:26:40.688Z,129.97
2019-02-17T18:29:08.336Z,129.53
2019-02-17T18:31:35.943Z,128.67
2019-02-17T18:34:03.523Z,119.47
2019-02-17T18:36:32.045Z,119.37
2019-02-17T18:38:59.687Z,121.27
2019-02-17T18:41:27.223Z,125.23
2019-02-17T18:43:54.737Z,129.50
2019-02-17T18:46:22.151Z,123.53
2019-02-17T18:48:49.615Z,128.33
2019-02-17T18:51:18.261Z,128.50
2019-02-17T18:53:45.665Z,123.03
2019-02-17T18:56:13.102Z,125.00
2019-02-17T18:58:40.605Z,143.20
2019-02-17T19:01:08.018Z,163.73
2019-02-17T19:03:35.468Z,161.23
2019-02-17T19:06:02.902Z,182.87
2019-02-17T19:08:30.383Z,169.07
2019-02-17T19:10:57.856Z,149.57
2019-02-17T19:13:25.323Z,137.10
2019-02-17T19:15:54.416Z,191.47
2019-02-17T19:18:22.996Z,218.83
2019-02-17T19:20:50.447Z,221.07
2019-02-17T19:23:18.107Z,203.43
2019-02-17T19:25:45.634Z,181.17
2019-02-17T19:28:13.086Z,165.60
2019-02-17T19:30:40.588Z,166.87
2019-02-17T19:33:08.086Z,174.83
2019-02-17T19:35:41.875Z,182.40
2019-02-17T19:38:05.592Z,178.10
2019-02-17T19:40:33.180Z,173.20
2019-02-17T19:43:00.681Z,169.63
2019-02-17T19:45:28.241Z,158.70
2019-02-17T19:47:57.706Z,168.80
2019-02-17T19:50:24.872Z,170.27
2019-02-17T19:52:52.648Z,157.03
2019-02-17T19:55:20.280Z,159.77
2019-02-17T19:57:47.797Z,157.43
2019-02-17T20:00:16.883Z,171.00
2019-02-17T20:02:58.069Z,163.23
2019-02-17T20:05:35.396Z,151.13
2019-02-17T20:08:03.203Z,147.07
2019-02-17T20:10:30.703Z,136.03
2019-02-17T20:12:58.264Z,133.73
2019-02-17T20:15:29.260Z,138.57
2019-02-17T20:17:56.695Z,122.27
2019-02-17T20:20:24.261Z,119.47
2019-02-17T20:22:52.344Z,130.73
2019-02-17T20:25:19.762Z,128.53
2019-02-17T20:27:47.208Z,144.77
2019-02-17T20:30:14.759Z,150.20
2019-02-17T20:32:42.183Z,142.43
2019-02-17T20:35:10.710Z,136.33
2019-02-17T20:37:38.202Z,140.57
2019-02-17T20:40:17.398Z,145.20
2019-02-17T20:42:46.243Z,138.63
2019-02-17T20:45:13.679Z,143.43
2019-02-17T20:47:41.183Z,141.27
2019-02-17T20:50:09.971Z,140.27
2019-02-17T20:52:37.820Z,148.80
2019-02-17T20:55:06.727Z,155.30
2019-02-17T20:57:34.248Z,163.30
2019-02-17T21:00:01.636Z,155.17
2019-02-17T21:02:29.198Z,142.07
2019-02-17T21:04:56.555Z,137.40
2019-02-17T21:07:23.987Z,124.97
2019-02-17T21:09:51.580Z,129.83
2019-02-17T21:12:18.984Z,131.97
2019-02-17T21:14:46.389Z,132.80
2019-02-17T21:17:13.905Z,128.23
2019-02-17T21:19:41.239Z,128.13
2019-02-17T21:22:08.581Z,127.63
2019-02-17T21:24:36.597Z,131.00
2019-02-17T21:27:03.957Z,126.17
2019-02-17T21:29:31.379Z,125.83
2019-02-17T21:31:58.802Z,124.07
2019-02-17T21:34:28.187Z,117.83
2019-02-17T21:36:55.598Z,110.37
2019-02-17T21:39:23.040Z,114.00
2019-02-17T21:41:50.483Z,121.33
2019-02-17T21:44:17.932Z,120.27
2019-02-17T21:46:45.476Z,115.40
2019-02-17T21:49:12.872Z,115.43
2019-02-17T21:51:40.360Z,125.07
2019-02-17T21:54:07.882Z,138.27
2019-02-17T21:56:35.363Z,141.43
2019-02-17T21:59:02.816Z,193.33
2019-02-17T22:01:30.212Z,210.53
2019-02-17T22:03:57.682Z,205.43
2019-02-17T22:06:33.261Z,207.83
2019-02-17T22:08:54.365Z,186.77
2019-02-17T22:11:21.776Z,203.00
2019-02-17T22:13:50.175Z,198.13
2019-02-17T22:16:20.187Z,178.80
2019-02-17T22:18:46.706Z,157.87
2019-02-17T22:21:14.065Z,142.17
2019-02-17T22:23:41.543Z,141.40
2019-02-17T22:26:10.533Z,142.20
2019-02-17T22:28:38.027Z,138.43
2019-02-17T22:31:06.609Z,141.13
2019-02-17T22:33:33.965Z,144.73
2019-02-17T22:36:01.315Z,168.80
2019-02-17T22:38:28.767Z,162.80
2019-02-17T22:40:56.121Z,159.87
2019-02-17T22:43:23.627Z,149.73
2019-02-17T22:45:51.185Z,139.67
2019-02-17T22:48:18.653Z,133.83
2019-02-17T22:50:46.075Z,130.47
2019-02-17T22:53:13.535Z,128.60
2019-02-17T22:55:40.885Z,128.30
2019-02-17T22:58:08.325Z,128.97
2019-02-17T23:00:47.434Z,134.60
2019-02-17T23:03:14.971Z,127.30
2019-02-17T23:05:42.431Z,125.40
2019-02-17T23:08:09.812Z,123.67
2019-02-17T23:10:37.228Z,122.17
2019-02-17T23:13:04.689Z,125.07
2019-02-17T23:15:32.180Z,121.57
2019-02-17T23:17:59.532Z,117.30
2019-02-17T23:20:27.201Z,108.53
2019-02-17T23:22:54.706Z,108.97
2019-02-17T23:25:22.282Z,109.80
2019-02-17T23:27:50.154Z,108.33
2019-02-17T23:30:17.656Z,108.07
2019-02-17T23:32:45.058Z,108.40
2019-02-17T23:35:12.495Z,117.00
2019-02-17T23:37:40.042Z,121.43
2019-02-17T23:40:10.972Z,115.30
2019-02-17T23:42:38.469Z,119.80
2019-02-17T23:45:10.075Z,122.37
2019-02-17T23:47:37.495Z,113.70
2019-02-17T23:50:05.830Z,109.77
2019-02-17T23:52:33.284Z,102.10
2019-02-17T23:55:00.809Z,107.20
2019-02-17T23:57:28.169Z,100.87
2019-02-17T23:59:55.660Z,97.27
